« Back
NWS Peachtree City, Ga » Text Product » ATL Terminal Aerodrome Forecast


Printer-friendly Version
Current Version              Previous Versions:   1  2  3  4  5  6  7  8  9  

Terminal Aerodrome Forecast

974
FTUS42 KFFC 241934 AAA
TAFATL
TAF AMD
KATL 241934Z 2420/2524 34005KT P6SM SCT050
     FM242100 02004KT P6SM FEW060
     FM250200 VRB03KT P6SM FEW250
     FM251600 09004KT P6SM FEW045=

USA.gov is the U.S. government's official web portal to all federal, state and local government web resources and services.